Terminal Aerodrome Forecast
Issued by NWS

Home | Current Version | Previous Version | Text Only | Print | Product List | Glossary On
Versions: 1 2 3 4 5 6 7 8 9 10 11 12
266
FTUS45 KGGW 190526
TAFSDY
TAF
KSDY 190526Z 1906/2006 16006KT P6SM BKN100 WS020/16035KT
     FM191100 VRB05KT P6SM VCSH BKN070
     FM191500 28015KT P6SM BKN070
     FM200300 25007KT P6SM SCT180=

USA.gov is the U.S. government's official web portal to all federal, state and local government web resources and services.